sensor_id;sensor_type;location;lat;lon;timestamp;P1;durP1;ratioP1;P2;durP2;ratioP2
56657;SDS011;42530;52.240;19.354;2022-11-09T00:00:43;36.30;;;32.30;;
56657;SDS011;42530;52.240;19.354;2022-11-09T00:03:09;35.83;;;32.15;;
56657;SDS011;42530;52.240;19.354;2022-11-09T00:05:35;36.65;;;32.75;;
56657;SDS011;42530;52.240;19.354;2022-11-09T00:08:03;35.78;;;30.73;;
56657;SDS011;42530;52.240;19.354;2022-11-09T00:10:30;34.35;;;30.85;;
56657;SDS011;42530;52.240;19.354;2022-11-09T00:12:56;38.45;;;33.67;;
56657;SDS011;42530;52.240;19.354;2022-11-09T00:15:22;34.70;;;31.17;;
56657;SDS011;42530;52.240;19.354;2022-11-09T00:17:47;37.13;;;32.83;;
56657;SDS011;42530;52.240;19.354;2022-11-09T00:20:12;37.55;;;33.60;;
56657;SDS011;42530;52.240;19.354;2022-11-09T00:22:38;36.28;;;32.35;;
56657;SDS011;42530;52.240;19.354;2022-11-09T00:25:03;38.17;;;32.13;;
56657;SDS011;42530;52.240;19.354;2022-11-09T00:27:29;38.20;;;34.17;;
56657;SDS011;42530;52.240;19.354;2022-11-09T00:29:54;41.58;;;35.58;;
56657;SDS011;42530;52.240;19.354;2022-11-09T00:32:20;40.80;;;36.42;;
56657;SDS011;42530;52.240;19.354;2022-11-09T00:34:45;40.35;;;33.13;;
56657;SDS011;42530;52.240;19.354;2022-11-09T00:37:10;38.05;;;34.08;;
56657;SDS011;42530;52.240;19.354;2022-11-09T00:39:35;38.72;;;32.30;;
56657;SDS011;42530;52.240;19.354;2022-11-09T00:42:01;36.90;;;33.08;;
56657;SDS011;42530;52.240;19.354;2022-11-09T00:44:26;40.97;;;35.85;;
56657;SDS011;42530;52.240;19.354;2022-11-09T00:46:52;37.58;;;33.58;;
56657;SDS011;42530;52.240;19.354;2022-11-09T00:49:17;38.05;;;33.22;;
56657;SDS011;42530;52.240;19.354;2022-11-09T00:51:43;46.80;;;37.70;;
56657;SDS011;42530;52.240;19.354;2022-11-09T00:54:09;41.47;;;35.22;;
56657;SDS011;42530;52.240;19.354;2022-11-09T00:56:34;43.90;;;32.38;;
56657;SDS011;42530;52.240;19.354;2022-11-09T00:59:00;38.70;;;32.72;;
56657;SDS011;42530;52.240;19.354;2022-11-09T01:01:26;34.00;;;30.40;;
56657;SDS011;42530;52.240;19.354;2022-11-09T01:03:51;42.45;;;33.72;;
56657;SDS011;42530;52.240;19.354;2022-11-09T01:06:18;42.20;;;36.10;;
56657;SDS011;42530;52.240;19.354;2022-11-09T01:08:45;46.28;;;36.25;;
56657;SDS011;42530;52.240;19.354;2022-11-09T01:11:12;41.67;;;37.15;;
56657;SDS011;42530;52.240;19.354;2022-11-09T01:13:39;39.08;;;34.75;;
56657;SDS011;42530;52.240;19.354;2022-11-09T01:16:06;43.63;;;34.88;;
56657;SDS011;42530;52.240;19.354;2022-11-09T01:18:36;40.13;;;36.15;;
56657;SDS011;42530;52.240;19.354;2022-11-09T01:21:03;45.10;;;40.20;;
56657;SDS011;42530;52.240;19.354;2022-11-09T01:23:31;39.83;;;35.58;;
56657;SDS011;42530;52.240;19.354;2022-11-09T01:26:00;41.25;;;36.80;;
56657;SDS011;42530;52.240;19.354;2022-11-09T01:28:28;42.15;;;35.50;;
56657;SDS011;42530;52.240;19.354;2022-11-09T01:30:53;43.90;;;38.28;;
56657;SDS011;42530;52.240;19.354;2022-11-09T01:33:19;41.67;;;36.28;;
56657;SDS011;42530;52.240;19.354;2022-11-09T01:35:45;45.22;;;37.92;;
56657;SDS011;42530;52.240;19.354;2022-11-09T01:38:10;46.20;;;34.30;;
56657;SDS011;42530;52.240;19.354;2022-11-09T01:40:37;43.20;;;36.42;;
56657;SDS011;42530;52.240;19.354;2022-11-09T01:43:16;43.85;;;35.28;;
56657;SDS011;42530;52.240;19.354;2022-11-09T01:48:59;39.83;;;35.53;;
56657;SDS011;42530;52.240;19.354;2022-11-09T01:54:04;41.40;;;36.92;;
56657;SDS011;42530;52.240;19.354;2022-11-09T01:56:34;47.17;;;37.10;;
56657;SDS011;42530;52.240;19.354;2022-11-09T01:59:05;42.88;;;36.80;;
56657;SDS011;42530;52.240;19.354;2022-11-09T02:01:35;40.78;;;36.22;;
56657;SDS011;42530;52.240;19.354;2022-11-09T02:04:05;46.58;;;39.53;;
56657;SDS011;42530;52.240;19.354;2022-11-09T02:06:33;39.70;;;35.47;;
56657;SDS011;42530;52.240;19.354;2022-11-09T02:09:04;42.67;;;36.60;;
56657;SDS011;42530;52.240;19.354;2022-11-09T02:11:36;40.13;;;35.90;;
56657;SDS011;42530;52.240;19.354;2022-11-09T02:14:02;58.13;;;38.58;;
56657;SDS011;42530;52.240;19.354;2022-11-09T02:16:29;45.88;;;34.67;;
56657;SDS011;42530;52.240;19.354;2022-11-09T02:18:57;42.70;;;36.42;;
56657;SDS011;42530;52.240;19.354;2022-11-09T02:21:25;44.28;;;34.15;;
56657;SDS011;42530;52.240;19.354;2022-11-09T02:23:52;42.13;;;36.45;;
56657;SDS011;42530;52.240;19.354;2022-11-09T02:26:22;46.17;;;36.22;;
56657;SDS011;42530;52.240;19.354;2022-11-09T02:29:09;43.58;;;34.65;;
56657;SDS011;42530;52.240;19.354;2022-11-09T02:31:38;47.58;;;37.10;;
56657;SDS011;42530;52.240;19.354;2022-11-09T02:34:08;43.15;;;38.33;;
56657;SDS011;42530;52.240;19.354;2022-11-09T02:36:38;46.55;;;41.50;;
56657;SDS011;42530;52.240;19.354;2022-11-09T02:39:04;48.97;;;42.22;;
56657;SDS011;42530;52.240;19.354;2022-11-09T02:41:30;46.03;;;41.03;;
56657;SDS011;42530;52.240;19.354;2022-11-09T02:43:57;46.13;;;40.85;;
56657;SDS011;42530;52.240;19.354;2022-11-09T02:46:34;47.58;;;41.45;;
56657;SDS011;42530;52.240;19.354;2022-11-09T02:49:01;50.72;;;42.45;;
56657;SDS011;42530;52.240;19.354;2022-11-09T02:51:27;47.15;;;41.38;;
56657;SDS011;42530;52.240;19.354;2022-11-09T02:53:53;54.15;;;43.95;;
56657;SDS011;42530;52.240;19.354;2022-11-09T02:56:19;50.60;;;40.72;;
56657;SDS011;42530;52.240;19.354;2022-11-09T02:58:44;45.20;;;40.58;;
56657;SDS011;42530;52.240;19.354;2022-11-09T03:01:10;48.28;;;39.50;;
56657;SDS011;42530;52.240;19.354;2022-11-09T03:03:35;51.10;;;42.00;;
56657;SDS011;42530;52.240;19.354;2022-11-09T03:06:01;51.80;;;44.08;;
56657;SDS011;42530;52.240;19.354;2022-11-09T03:08:27;47.67;;;40.25;;
56657;SDS011;42530;52.240;19.354;2022-11-09T03:10:52;52.00;;;45.08;;
56657;SDS011;42530;52.240;19.354;2022-11-09T03:13:18;49.70;;;44.45;;
56657;SDS011;42530;52.240;19.354;2022-11-09T03:15:43;48.85;;;43.42;;
56657;SDS011;42530;52.240;19.354;2022-11-09T03:18:09;48.53;;;42.40;;
56657;SDS011;42530;52.240;19.354;2022-11-09T03:20:34;60.47;;;45.50;;
56657;SDS011;42530;52.240;19.354;2022-11-09T03:23:00;51.20;;;44.33;;
56657;SDS011;42530;52.240;19.354;2022-11-09T03:25:25;52.55;;;43.13;;
56657;SDS011;42530;52.240;19.354;2022-11-09T03:27:57;52.17;;;45.85;;
56657;SDS011;42530;52.240;19.354;2022-11-09T03:30:24;49.42;;;40.63;;
56657;SDS011;42530;52.240;19.354;2022-11-09T03:32:49;49.58;;;41.33;;
56657;SDS011;42530;52.240;19.354;2022-11-09T03:35:15;53.83;;;45.28;;
56657;SDS011;42530;52.240;19.354;2022-11-09T03:37:40;47.72;;;42.45;;
56657;SDS011;42530;52.240;19.354;2022-11-09T03:40:06;55.00;;;43.60;;
56657;SDS011;42530;52.240;19.354;2022-11-09T03:42:31;55.10;;;45.30;;
56657;SDS011;42530;52.240;19.354;2022-11-09T03:44:57;50.75;;;44.45;;
56657;SDS011;42530;52.240;19.354;2022-11-09T03:47:22;56.33;;;45.90;;
56657;SDS011;42530;52.240;19.354;2022-11-09T03:49:48;49.70;;;43.33;;
56657;SDS011;42530;52.240;19.354;2022-11-09T03:52:13;58.15;;;47.83;;
56657;SDS011;42530;52.240;19.354;2022-11-09T03:54:39;55.03;;;45.90;;
56657;SDS011;42530;52.240;19.354;2022-11-09T03:57:04;51.25;;;45.72;;
56657;SDS011;42530;52.240;19.354;2022-11-09T03:59:30;54.50;;;41.13;;
56657;SDS011;42530;52.240;19.354;2022-11-09T04:01:55;51.15;;;42.10;;
56657;SDS011;42530;52.240;19.354;2022-11-09T04:04:20;49.10;;;43.90;;
56657;SDS011;42530;52.240;19.354;2022-11-09T04:06:46;49.58;;;43.88;;
56657;SDS011;42530;52.240;19.354;2022-11-09T04:09:11;56.17;;;43.53;;
56657;SDS011;42530;52.240;19.354;2022-11-09T04:11:37;47.80;;;39.50;;
56657;SDS011;42530;52.240;19.354;2022-11-09T04:14:02;51.40;;;42.30;;
56657;SDS011;42530;52.240;19.354;2022-11-09T04:16:28;52.08;;;45.30;;
56657;SDS011;42530;52.240;19.354;2022-11-09T04:18:53;50.72;;;42.65;;
56657;SDS011;42530;52.240;19.354;2022-11-09T04:21:19;49.75;;;39.97;;
56657;SDS011;42530;52.240;19.354;2022-11-09T04:23:45;51.75;;;43.03;;
56657;SDS011;42530;52.240;19.354;2022-11-09T04:26:12;50.50;;;43.33;;
56657;SDS011;42530;52.240;19.354;2022-11-09T04:28:37;49.47;;;42.53;;
56657;SDS011;42530;52.240;19.354;2022-11-09T04:31:03;55.20;;;43.95;;
56657;SDS011;42530;52.240;19.354;2022-11-09T04:33:28;52.72;;;43.63;;
56657;SDS011;42530;52.240;19.354;2022-11-09T04:35:54;51.58;;;42.00;;
56657;SDS011;42530;52.240;19.354;2022-11-09T04:38:19;59.58;;;45.35;;
56657;SDS011;42530;52.240;19.354;2022-11-09T04:40:45;55.83;;;46.50;;
56657;SDS011;42530;52.240;19.354;2022-11-09T04:43:11;53.83;;;46.03;;
56657;SDS011;42530;52.240;19.354;2022-11-09T04:45:37;60.90;;;48.70;;
56657;SDS011;42530;52.240;19.354;2022-11-09T04:48:05;51.08;;;44.85;;
56657;SDS011;42530;52.240;19.354;2022-11-09T04:50:31;60.65;;;47.65;;
56657;SDS011;42530;52.240;19.354;2022-11-09T04:53:07;51.80;;;44.35;;
56657;SDS011;42530;52.240;19.354;2022-11-09T04:55:34;59.63;;;48.90;;
56657;SDS011;42530;52.240;19.354;2022-11-09T04:58:00;58.90;;;43.45;;
56657;SDS011;42530;52.240;19.354;2022-11-09T05:00:26;53.67;;;43.33;;
56657;SDS011;42530;52.240;19.354;2022-11-09T05:02:51;54.30;;;41.72;;
56657;SDS011;42530;52.240;19.354;2022-11-09T05:05:17;58.40;;;47.50;;
56657;SDS011;42530;52.240;19.354;2022-11-09T05:07:43;58.90;;;46.72;;
56657;SDS011;42530;52.240;19.354;2022-11-09T05:10:08;57.95;;;45.63;;
56657;SDS011;42530;52.240;19.354;2022-11-09T05:12:33;52.83;;;44.00;;
56657;SDS011;42530;52.240;19.354;2022-11-09T05:14:59;60.50;;;44.42;;
56657;SDS011;42530;52.240;19.354;2022-11-09T05:17:25;58.10;;;44.88;;
56657;SDS011;42530;52.240;19.354;2022-11-09T05:19:50;60.78;;;50.63;;
56657;SDS011;42530;52.240;19.354;2022-11-09T05:22:16;51.10;;;45.22;;
56657;SDS011;42530;52.240;19.354;2022-11-09T05:25:11;53.60;;;41.25;;
56657;SDS011;42530;52.240;19.354;2022-11-09T05:27:37;50.63;;;44.70;;
56657;SDS011;42530;52.240;19.354;2022-11-09T05:30:03;62.30;;;45.65;;
56657;SDS011;42530;52.240;19.354;2022-11-09T05:32:29;58.88;;;43.92;;
56657;SDS011;42530;52.240;19.354;2022-11-09T05:34:55;60.53;;;50.42;;
56657;SDS011;42530;52.240;19.354;2022-11-09T05:37:20;53.00;;;45.80;;
56657;SDS011;42530;52.240;19.354;2022-11-09T05:39:46;52.63;;;41.15;;
56657;SDS011;42530;52.240;19.354;2022-11-09T05:42:12;49.13;;;43.90;;
56657;SDS011;42530;52.240;19.354;2022-11-09T05:44:38;52.97;;;42.95;;
56657;SDS011;42530;52.240;19.354;2022-11-09T05:47:03;50.10;;;40.30;;
56657;SDS011;42530;52.240;19.354;2022-11-09T05:49:29;55.45;;;40.97;;
56657;SDS011;42530;52.240;19.354;2022-11-09T05:51:54;49.42;;;43.28;;
56657;SDS011;42530;52.240;19.354;2022-11-09T05:54:20;57.05;;;42.95;;
56657;SDS011;42530;52.240;19.354;2022-11-09T05:56:45;50.22;;;41.53;;
56657;SDS011;42530;52.240;19.354;2022-11-09T05:59:11;49.13;;;38.63;;
56657;SDS011;42530;52.240;19.354;2022-11-09T06:01:36;60.75;;;42.40;;
56657;SDS011;42530;52.240;19.354;2022-11-09T06:04:02;51.53;;;41.20;;
56657;SDS011;42530;52.240;19.354;2022-11-09T06:06:28;52.88;;;40.92;;
56657;SDS011;42530;52.240;19.354;2022-11-09T06:08:53;47.95;;;42.33;;
56657;SDS011;42530;52.240;19.354;2022-11-09T06:11:19;54.38;;;44.50;;
56657;SDS011;42530;52.240;19.354;2022-11-09T06:13:45;55.40;;;42.50;;
56657;SDS011;42530;52.240;19.354;2022-11-09T06:16:10;54.88;;;41.60;;
56657;SDS011;42530;52.240;19.354;2022-11-09T06:18:36;49.13;;;37.63;;
56657;SDS011;42530;52.240;19.354;2022-11-09T06:21:02;54.15;;;41.55;;
56657;SDS011;42530;52.240;19.354;2022-11-09T06:23:30;49.03;;;39.63;;
56657;SDS011;42530;52.240;19.354;2022-11-09T06:25:56;53.55;;;40.70;;
56657;SDS011;42530;52.240;19.354;2022-11-09T06:28:22;50.40;;;40.00;;
56657;SDS011;42530;52.240;19.354;2022-11-09T06:30:48;52.80;;;40.97;;
56657;SDS011;42530;52.240;19.354;2022-11-09T06:33:13;48.22;;;39.75;;
56657;SDS011;42530;52.240;19.354;2022-11-09T06:35:39;45.13;;;37.88;;
56657;SDS011;42530;52.240;19.354;2022-11-09T06:38:05;49.28;;;39.38;;
56657;SDS011;42530;52.240;19.354;2022-11-09T06:40:30;47.80;;;41.38;;
56657;SDS011;42530;52.240;19.354;2022-11-09T06:42:58;43.63;;;38.47;;
56657;SDS011;42530;52.240;19.354;2022-11-09T06:45:24;54.17;;;38.85;;
56657;SDS011;42530;52.240;19.354;2022-11-09T06:47:53;45.72;;;34.75;;
56657;SDS011;42530;52.240;19.354;2022-11-09T06:50:20;49.58;;;38.42;;
56657;SDS011;42530;52.240;19.354;2022-11-09T06:52:46;45.53;;;38.47;;
56657;SDS011;42530;52.240;19.354;2022-11-09T06:55:11;43.92;;;39.17;;
56657;SDS011;42530;52.240;19.354;2022-11-09T06:57:37;39.72;;;34.45;;
56657;SDS011;42530;52.240;19.354;2022-11-09T07:00:03;44.05;;;36.90;;
56657;SDS011;42530;52.240;19.354;2022-11-09T07:02:29;51.05;;;39.15;;
56657;SDS011;42530;52.240;19.354;2022-11-09T07:04:55;47.53;;;37.55;;
56657;SDS011;42530;52.240;19.354;2022-11-09T07:07:20;50.42;;;40.13;;
56657;SDS011;42530;52.240;19.354;2022-11-09T07:09:45;44.67;;;37.13;;
56657;SDS011;42530;52.240;19.354;2022-11-09T07:12:11;41.85;;;35.83;;
56657;SDS011;42530;52.240;19.354;2022-11-09T07:14:36;49.15;;;37.55;;
56657;SDS011;42530;52.240;19.354;2022-11-09T07:17:02;40.90;;;35.17;;
56657;SDS011;42530;52.240;19.354;2022-11-09T07:19:28;45.83;;;36.60;;
56657;SDS011;42530;52.240;19.354;2022-11-09T07:21:54;44.15;;;37.60;;
56657;SDS011;42530;52.240;19.354;2022-11-09T07:24:20;45.13;;;35.58;;
56657;SDS011;42530;52.240;19.354;2022-11-09T07:26:46;48.58;;;35.80;;
56657;SDS011;42530;52.240;19.354;2022-11-09T07:29:12;45.35;;;35.75;;
56657;SDS011;42530;52.240;19.354;2022-11-09T07:31:38;40.03;;;33.80;;
56657;SDS011;42530;52.240;19.354;2022-11-09T07:34:03;43.88;;;34.08;;
56657;SDS011;42530;52.240;19.354;2022-11-09T07:36:30;36.42;;;30.05;;
56657;SDS011;42530;52.240;19.354;2022-11-09T07:38:56;42.95;;;32.83;;
56657;SDS011;42530;52.240;19.354;2022-11-09T07:41:21;36.20;;;30.38;;
56657;SDS011;42530;52.240;19.354;2022-11-09T07:43:47;37.17;;;28.17;;
56657;SDS011;42530;52.240;19.354;2022-11-09T07:46:13;37.08;;;28.23;;
56657;SDS011;42530;52.240;19.354;2022-11-09T07:48:38;37.58;;;28.63;;
56657;SDS011;42530;52.240;19.354;2022-11-09T07:51:04;35.33;;;28.88;;
56657;SDS011;42530;52.240;19.354;2022-11-09T07:53:29;35.25;;;30.40;;
56657;SDS011;42530;52.240;19.354;2022-11-09T07:55:56;35.17;;;28.77;;
56657;SDS011;42530;52.240;19.354;2022-11-09T07:58:22;42.83;;;31.33;;
56657;SDS011;42530;52.240;19.354;2022-11-09T08:00:48;37.30;;;27.33;;
56657;SDS011;42530;52.240;19.354;2022-11-09T08:03:13;36.80;;;29.17;;
56657;SDS011;42530;52.240;19.354;2022-11-09T08:05:39;35.30;;;28.13;;
56657;SDS011;42530;52.240;19.354;2022-11-09T08:08:06;37.80;;;31.65;;
56657;SDS011;42530;52.240;19.354;2022-11-09T08:10:33;39.13;;;30.50;;
56657;SDS011;42530;52.240;19.354;2022-11-09T08:13:00;46.92;;;33.78;;
56657;SDS011;42530;52.240;19.354;2022-11-09T08:15:28;41.38;;;28.45;;
56657;SDS011;42530;52.240;19.354;2022-11-09T08:17:57;40.92;;;27.30;;
56657;SDS011;42530;52.240;19.354;2022-11-09T08:20:24;30.50;;;26.15;;
56657;SDS011;42530;52.240;19.354;2022-11-09T08:22:50;33.53;;;26.95;;
56657;SDS011;42530;52.240;19.354;2022-11-09T08:25:16;33.83;;;26.80;;
56657;SDS011;42530;52.240;19.354;2022-11-09T08:27:41;30.98;;;24.10;;
56657;SDS011;42530;52.240;19.354;2022-11-09T08:30:17;34.33;;;24.85;;
56657;SDS011;42530;52.240;19.354;2022-11-09T08:32:44;33.13;;;25.77;;
56657;SDS011;42530;52.240;19.354;2022-11-09T08:35:11;37.45;;;24.15;;
56657;SDS011;42530;52.240;19.354;2022-11-09T08:37:44;30.70;;;25.60;;
56657;SDS011;42530;52.240;19.354;2022-11-09T08:40:12;29.38;;;25.75;;
56657;SDS011;42530;52.240;19.354;2022-11-09T08:42:40;29.73;;;24.05;;
56657;SDS011;42530;52.240;19.354;2022-11-09T08:45:05;31.83;;;24.02;;
56657;SDS011;42530;52.240;19.354;2022-11-09T08:47:32;28.55;;;24.80;;
56657;SDS011;42530;52.240;19.354;2022-11-09T08:49:58;29.02;;;23.27;;
56657;SDS011;42530;52.240;19.354;2022-11-09T08:52:24;31.02;;;23.60;;
56657;SDS011;42530;52.240;19.354;2022-11-09T08:54:50;29.58;;;26.45;;
56657;SDS011;42530;52.240;19.354;2022-11-09T08:57:19;31.48;;;24.63;;
56657;SDS011;42530;52.240;19.354;2022-11-09T08:59:44;25.05;;;22.35;;
56657;SDS011;42530;52.240;19.354;2022-11-09T09:02:11;31.85;;;26.80;;
56657;SDS011;42530;52.240;19.354;2022-11-09T09:04:37;26.77;;;23.17;;
56657;SDS011;42530;52.240;19.354;2022-11-09T09:07:03;25.65;;;21.67;;
56657;SDS011;42530;52.240;19.354;2022-11-09T09:09:29;31.77;;;27.02;;
56657;SDS011;42530;52.240;19.354;2022-11-09T09:11:55;26.25;;;22.83;;
56657;SDS011;42530;52.240;19.354;2022-11-09T09:14:20;27.73;;;24.55;;
56657;SDS011;42530;52.240;19.354;2022-11-09T09:16:46;28.67;;;23.60;;
56657;SDS011;42530;52.240;19.354;2022-11-09T09:19:12;28.80;;;22.02;;
56657;SDS011;42530;52.240;19.354;2022-11-09T09:21:37;26.45;;;23.77;;
56657;SDS011;42530;52.240;19.354;2022-11-09T09:24:03;32.22;;;25.73;;
56657;SDS011;42530;52.240;19.354;2022-11-09T09:26:29;29.83;;;22.95;;
56657;SDS011;42530;52.240;19.354;2022-11-09T09:28:54;24.45;;;21.92;;
56657;SDS011;42530;52.240;19.354;2022-11-09T09:31:20;29.65;;;24.30;;
56657;SDS011;42530;52.240;19.354;2022-11-09T09:33:46;27.58;;;23.92;;
56657;SDS011;42530;52.240;19.354;2022-11-09T09:36:21;24.48;;;21.85;;
56657;SDS011;42530;52.240;19.354;2022-11-09T09:38:51;32.78;;;27.88;;
56657;SDS011;42530;52.240;19.354;2022-11-09T09:41:24;31.45;;;25.27;;
56657;SDS011;42530;52.240;19.354;2022-11-09T09:44:00;23.42;;;20.83;;
56657;SDS011;42530;52.240;19.354;2022-11-09T09:46:39;24.52;;;20.10;;
56657;SDS011;42530;52.240;19.354;2022-11-09T09:49:21;26.38;;;22.55;;
56657;SDS011;42530;52.240;19.354;2022-11-09T09:51:52;26.45;;;23.50;;
56657;SDS011;42530;52.240;19.354;2022-11-09T09:54:38;27.20;;;21.92;;
56657;SDS011;42530;52.240;19.354;2022-11-09T09:57:11;25.05;;;21.85;;
56657;SDS011;42530;52.240;19.354;2022-11-09T09:59:43;26.70;;;22.38;;
56657;SDS011;42530;52.240;19.354;2022-11-09T10:05:04;28.05;;;22.05;;
56657;SDS011;42530;52.240;19.354;2022-11-09T10:07:40;26.70;;;24.10;;
56657;SDS011;42530;52.240;19.354;2022-11-09T10:26:22;27.48;;;20.98;;
56657;SDS011;42530;52.240;19.354;2022-11-09T10:28:55;30.30;;;23.95;;
56657;SDS011;42530;52.240;19.354;2022-11-09T10:31:25;26.48;;;21.77;;
56657;SDS011;42530;52.240;19.354;2022-11-09T10:33:58;27.80;;;22.60;;
56657;SDS011;42530;52.240;19.354;2022-11-09T10:36:42;25.73;;;23.00;;
56657;SDS011;42530;52.240;19.354;2022-11-09T10:39:14;26.73;;;19.02;;
56657;SDS011;42530;52.240;19.354;2022-11-09T10:41:41;26.15;;;23.35;;
56657;SDS011;42530;52.240;19.354;2022-11-09T10:44:14;26.42;;;23.65;;
56657;SDS011;42530;52.240;19.354;2022-11-09T10:49:40;27.30;;;22.45;;
56657;SDS011;42530;52.240;19.354;2022-11-09T10:52:29;25.92;;;21.20;;
56657;SDS011;42530;52.240;19.354;2022-11-09T10:57:49;27.05;;;21.98;;
56657;SDS011;42530;52.240;19.354;2022-11-09T11:00:18;28.13;;;24.52;;
56657;SDS011;42530;52.240;19.354;2022-11-09T11:02:45;29.85;;;22.25;;
56657;SDS011;42530;52.240;19.354;2022-11-09T11:07:43;32.50;;;24.83;;
56657;SDS011;42530;52.240;19.354;2022-11-09T11:10:10;30.63;;;25.55;;
56657;SDS011;42530;52.240;19.354;2022-11-09T11:12:39;32.40;;;22.75;;
56657;SDS011;42530;52.240;19.354;2022-11-09T11:18:22;29.55;;;25.30;;
56657;SDS011;42530;52.240;19.354;2022-11-09T11:23:37;30.50;;;23.88;;
56657;SDS011;42530;52.240;19.354;2022-11-09T11:26:10;30.52;;;26.85;;
56657;SDS011;42530;52.240;19.354;2022-11-09T11:29:31;26.98;;;24.17;;
56657;SDS011;42530;52.240;19.354;2022-11-09T11:32:04;32.65;;;25.52;;
56657;SDS011;42530;52.240;19.354;2022-11-09T11:34:42;28.77;;;23.52;;
56657;SDS011;42530;52.240;19.354;2022-11-09T11:48:34;28.65;;;24.02;;
56657;SDS011;42530;52.240;19.354;2022-11-09T11:51:30;31.10;;;23.85;;
56657;SDS011;42530;52.240;19.354;2022-11-09T12:07:41;33.88;;;26.20;;
56657;SDS011;42530;52.240;19.354;2022-11-09T12:12:59;33.53;;;27.17;;
56657;SDS011;42530;52.240;19.354;2022-11-09T12:15:43;28.02;;;23.60;;
56657;SDS011;42530;52.240;19.354;2022-11-09T12:20:43;27.88;;;24.98;;
56657;SDS011;42530;52.240;19.354;2022-11-09T12:29:28;34.20;;;27.52;;
56657;SDS011;42530;52.240;19.354;2022-11-09T12:37:50;32.15;;;27.05;;
56657;SDS011;42530;52.240;19.354;2022-11-09T12:40:25;31.45;;;25.60;;
56657;SDS011;42530;52.240;19.354;2022-11-09T12:42:56;33.55;;;25.70;;
56657;SDS011;42530;52.240;19.354;2022-11-09T12:48:44;35.50;;;29.00;;
56657;SDS011;42530;52.240;19.354;2022-11-09T12:50:55;35.85;;;29.13;;
56657;SDS011;42530;52.240;19.354;2022-11-09T12:53:24;34.08;;;26.38;;
56657;SDS011;42530;52.240;19.354;2022-11-09T12:58:29;29.05;;;24.02;;
56657;SDS011;42530;52.240;19.354;2022-11-09T13:00:57;27.80;;;24.75;;
56657;SDS011;42530;52.240;19.354;2022-11-09T13:03:29;30.13;;;25.95;;
56657;SDS011;42530;52.240;19.354;2022-11-09T13:06:30;30.80;;;24.10;;
56657;SDS011;42530;52.240;19.354;2022-11-09T13:11:39;31.77;;;24.63;;
56657;SDS011;42530;52.240;19.354;2022-11-09T13:16:50;31.88;;;28.50;;
56657;SDS011;42530;52.240;19.354;2022-11-09T13:19:47;32.25;;;26.05;;
56657;SDS011;42530;52.240;19.354;2022-11-09T13:30:48;35.95;;;28.50;;
56657;SDS011;42530;52.240;19.354;2022-11-09T13:36:13;39.40;;;26.92;;
56657;SDS011;42530;52.240;19.354;2022-11-09T13:40:50;29.75;;;23.73;;
56657;SDS011;42530;52.240;19.354;2022-11-09T13:43:19;36.45;;;25.70;;
56657;SDS011;42530;52.240;19.354;2022-11-09T13:50:53;26.30;;;21.35;;
56657;SDS011;42530;52.240;19.354;2022-11-09T13:56:14;27.73;;;24.58;;
56657;SDS011;42530;52.240;19.354;2022-11-09T14:02:22;31.35;;;25.65;;
56657;SDS011;42530;52.240;19.354;2022-11-09T14:04:49;33.65;;;27.95;;
56657;SDS011;42530;52.240;19.354;2022-11-09T14:10:11;32.22;;;27.05;;
56657;SDS011;42530;52.240;19.354;2022-11-09T14:12:40;35.17;;;27.55;;
56657;SDS011;42530;52.240;19.354;2022-11-09T14:15:23;34.38;;;28.95;;
56657;SDS011;42530;52.240;19.354;2022-11-09T14:27:01;43.13;;;34.33;;
56657;SDS011;42530;52.240;19.354;2022-11-09T14:29:33;39.30;;;34.58;;
56657;SDS011;42530;52.240;19.354;2022-11-09T14:32:00;40.83;;;35.42;;
56657;SDS011;42530;52.240;19.354;2022-11-09T14:34:42;41.22;;;36.83;;
56657;SDS011;42530;52.240;19.354;2022-11-09T14:37:09;36.67;;;31.20;;
56657;SDS011;42530;52.240;19.354;2022-11-09T14:39:38;36.65;;;31.75;;
56657;SDS011;42530;52.240;19.354;2022-11-09T14:42:04;38.72;;;31.88;;
56657;SDS011;42530;52.240;19.354;2022-11-09T14:44:36;40.55;;;32.70;;
56657;SDS011;42530;52.240;19.354;2022-11-09T14:47:17;45.78;;;40.47;;
56657;SDS011;42530;52.240;19.354;2022-11-09T14:49:44;46.00;;;40.60;;
56657;SDS011;42530;52.240;19.354;2022-11-09T14:52:11;39.22;;;34.10;;
56657;SDS011;42530;52.240;19.354;2022-11-09T14:54:41;42.35;;;35.40;;
56657;SDS011;42530;52.240;19.354;2022-11-09T14:57:09;38.60;;;34.40;;
56657;SDS011;42530;52.240;19.354;2022-11-09T14:59:38;39.38;;;34.80;;
56657;SDS011;42530;52.240;19.354;2022-11-09T15:02:12;37.78;;;33.72;;
56657;SDS011;42530;52.240;19.354;2022-11-09T15:04:50;49.65;;;39.13;;
56657;SDS011;42530;52.240;19.354;2022-11-09T15:07:20;53.20;;;39.60;;
56657;SDS011;42530;52.240;19.354;2022-11-09T15:09:48;49.33;;;40.88;;
56657;SDS011;42530;52.240;19.354;2022-11-09T15:12:19;48.97;;;40.65;;
56657;SDS011;42530;52.240;19.354;2022-11-09T15:14:49;49.95;;;39.15;;
56657;SDS011;42530;52.240;19.354;2022-11-09T15:17:22;53.08;;;45.50;;
56657;SDS011;42530;52.240;19.354;2022-11-09T15:25:16;52.22;;;46.65;;
56657;SDS011;42530;52.240;19.354;2022-11-09T15:27:55;53.25;;;45.80;;
56657;SDS011;42530;52.240;19.354;2022-11-09T15:30:28;56.83;;;46.38;;
56657;SDS011;42530;52.240;19.354;2022-11-09T15:32:56;51.40;;;45.97;;
56657;SDS011;42530;52.240;19.354;2022-11-09T15:35:21;62.55;;;54.20;;
56657;SDS011;42530;52.240;19.354;2022-11-09T15:37:49;52.80;;;46.90;;
56657;SDS011;42530;52.240;19.354;2022-11-09T15:40:17;54.80;;;42.55;;
56657;SDS011;42530;52.240;19.354;2022-11-09T15:42:44;48.95;;;43.88;;
56657;SDS011;42530;52.240;19.354;2022-11-09T15:45:13;54.75;;;43.10;;
56657;SDS011;42530;52.240;19.354;2022-11-09T15:47:47;64.72;;;49.17;;
56657;SDS011;42530;52.240;19.354;2022-11-09T15:50:19;56.83;;;46.83;;
56657;SDS011;42530;52.240;19.354;2022-11-09T15:52:47;58.58;;;50.63;;
56657;SDS011;42530;52.240;19.354;2022-11-09T15:55:14;65.15;;;55.63;;
56657;SDS011;42530;52.240;19.354;2022-11-09T15:57:41;67.55;;;54.10;;
56657;SDS011;42530;52.240;19.354;2022-11-09T16:00:11;60.88;;;53.15;;
56657;SDS011;42530;52.240;19.354;2022-11-09T16:02:38;78.50;;;63.03;;
56657;SDS011;42530;52.240;19.354;2022-11-09T16:05:03;60.50;;;51.92;;
56657;SDS011;42530;52.240;19.354;2022-11-09T16:07:29;51.60;;;45.35;;
56657;SDS011;42530;52.240;19.354;2022-11-09T16:09:55;53.05;;;41.45;;
56657;SDS011;42530;52.240;19.354;2022-11-09T16:12:20;46.72;;;39.10;;
56657;SDS011;42530;52.240;19.354;2022-11-09T16:14:45;59.35;;;46.25;;
56657;SDS011;42530;52.240;19.354;2022-11-09T16:17:11;61.97;;;46.13;;
56657;SDS011;42530;52.240;19.354;2022-11-09T16:19:36;66.80;;;49.58;;
56657;SDS011;42530;52.240;19.354;2022-11-09T16:22:04;58.30;;;45.55;;
56657;SDS011;42530;52.240;19.354;2022-11-09T16:24:30;53.55;;;44.00;;
56657;SDS011;42530;52.240;19.354;2022-11-09T16:26:56;55.97;;;47.35;;
56657;SDS011;42530;52.240;19.354;2022-11-09T16:29:22;58.72;;;46.03;;